createdAt,value
2018-02-02T12:30:08.132Z,3.86
2018-02-02T12:35:38.652Z,3.95
2018-02-02T12:38:04.462Z,3.97
2018-02-02T12:40:30.631Z,3.83
2018-02-02T12:42:56.417Z,3.80
2018-02-02T12:45:22.251Z,3.78
2018-02-02T12:48:00.480Z,3.85
2018-02-02T12:50:38.665Z,3.92
2018-02-02T12:53:04.439Z,3.78
2018-02-02T12:55:30.227Z,3.84
2018-02-02T12:57:56.335Z,3.85
2018-02-02T13:00:22.191Z,3.80
2018-02-02T13:02:47.984Z,3.85
2018-02-02T13:05:13.793Z,3.83
2018-02-02T13:07:39.815Z,4.06
2018-02-02T13:10:05.681Z,3.94
2018-02-02T13:12:31.477Z,3.91
2018-02-02T13:14:57.396Z,3.99
2018-02-02T13:17:23.379Z,4.09
2018-02-02T13:19:49.220Z,4.08
2018-02-02T13:22:15.004Z,4.14
2018-02-02T13:24:41.407Z,4.25
2018-02-02T13:27:07.523Z,4.31
2018-02-02T13:29:33.343Z,4.23
2018-02-02T13:31:59.144Z,4.27
2018-02-02T13:34:24.952Z,4.37
2018-02-02T13:36:50.909Z,4.49
2018-02-02T13:39:16.840Z,4.60
2018-02-02T13:41:42.643Z,4.46
2018-02-02T13:44:08.451Z,4.46
2018-02-02T13:46:34.252Z,4.29
2018-02-02T13:49:00.048Z,4.38
2018-02-02T13:51:25.830Z,4.35
2018-02-02T13:53:51.625Z,4.27
2018-02-02T13:56:17.409Z,4.28
2018-02-02T13:58:43.525Z,4.20
2018-02-02T14:01:09.325Z,4.23
2018-02-02T14:03:35.116Z,4.30
2018-02-02T14:06:00.897Z,4.38
2018-02-02T14:08:26.676Z,4.40
2018-02-02T14:10:52.491Z,4.44
2018-02-02T14:13:18.308Z,4.42
2018-02-02T14:15:44.094Z,4.49
2018-02-02T14:18:10.052Z,4.48
2018-02-02T14:20:35.823Z,4.41
2018-02-02T14:23:01.654Z,4.33
2018-02-02T14:25:27.468Z,4.36
2018-02-02T14:27:53.246Z,4.67
2018-02-02T14:30:19.039Z,4.42
2018-02-02T14:32:44.839Z,4.39
2018-02-02T14:35:10.997Z,4.44
2018-02-02T14:37:36.930Z,4.37
2018-02-02T14:40:02.780Z,4.34
2018-02-02T14:42:28.585Z,4.27
2018-02-02T14:44:54.358Z,4.31
2018-02-02T14:47:20.190Z,4.29
2018-02-02T14:49:46.012Z,4.38
2018-02-02T14:52:11.791Z,4.65
2018-02-02T14:54:37.587Z,4.66
2018-02-02T14:57:03.389Z,5.22
2018-02-02T14:59:29.203Z,4.85
2018-02-02T15:01:55.007Z,4.84
2018-02-02T15:04:20.791Z,4.49
2018-02-02T15:06:46.572Z,5.00
2018-02-02T15:09:12.364Z,4.69
2018-02-02T15:11:38.191Z,4.51
2018-02-02T15:14:03.975Z,4.72
2018-02-02T15:16:30.094Z,4.95
2018-02-02T15:18:55.891Z,4.52
2018-02-02T15:21:21.691Z,4.42
2018-02-02T15:23:47.491Z,4.37
2018-02-02T15:26:13.284Z,4.43
2018-02-02T15:28:39.427Z,4.41
2018-02-02T15:31:05.236Z,4.46
2018-02-02T15:33:31.032Z,4.43
2018-02-02T15:35:56.812Z,4.43
2018-02-02T15:38:22.611Z,4.44
2018-02-02T15:40:49.298Z,4.34
2018-02-02T15:43:15.160Z,4.35
2018-02-02T15:45:40.957Z,4.28
2018-02-02T15:48:06.734Z,4.29
2018-02-02T15:50:32.540Z,4.29
2018-02-02T15:52:58.334Z,4.45
2018-02-02T15:55:24.124Z,4.42
2018-02-02T15:57:49.916Z,4.47
2018-02-02T16:00:16.075Z,4.38
2018-02-02T16:02:41.895Z,4.29
2018-02-02T16:05:14.672Z,4.56
2018-02-02T16:07:40.455Z,4.27
2018-02-02T16:10:06.333Z,4.24
2018-02-02T16:12:32.135Z,4.27
2018-02-02T16:14:57.961Z,4.21
2018-02-02T16:17:23.797Z,4.32
2018-02-02T16:19:49.606Z,4.32
2018-02-02T16:22:15.395Z,4.31
2018-02-02T16:24:41.249Z,4.38
2018-02-02T16:27:07.103Z,4.36
2018-02-02T16:29:33.059Z,4.22
2018-02-02T16:31:58.850Z,4.15
2018-02-02T16:34:24.664Z,4.20
2018-02-02T16:36:50.484Z,4.27
2018-02-02T16:39:16.290Z,4.11
2018-02-02T16:41:42.155Z,4.01
2018-02-02T16:44:07.960Z,3.89
2018-02-02T16:46:33.780Z,3.87
2018-02-02T16:48:59.587Z,3.81
2018-02-02T16:51:25.387Z,3.73
2018-02-02T16:53:51.439Z,3.67
2018-02-02T16:56:17.240Z,3.54
2018-02-02T16:58:43.035Z,3.58
2018-02-02T17:01:08.869Z,3.56
2018-02-02T17:03:34.658Z,3.60
2018-02-02T17:06:00.491Z,3.60
2018-02-02T17:08:26.308Z,3.57
2018-02-02T17:10:52.115Z,3.55
2018-02-02T17:13:17.935Z,3.53
2018-02-02T17:15:43.734Z,3.54
2018-02-02T17:18:09.782Z,3.51
2018-02-02T17:20:35.569Z,3.46
2018-02-02T17:23:01.374Z,3.54
2018-02-02T17:25:27.176Z,3.60
2018-02-02T17:27:53.168Z,3.63
2018-02-02T17:30:18.986Z,3.59
2018-02-02T17:32:44.834Z,3.59
2018-02-02T17:35:10.649Z,3.61
2018-02-02T17:37:36.455Z,3.56
2018-02-02T17:40:02.264Z,3.43
2018-02-02T17:42:28.104Z,3.52
2018-02-02T17:44:53.906Z,3.40
2018-02-02T17:47:19.705Z,3.52
2018-02-02T17:49:45.497Z,3.66
2018-02-02T17:52:11.289Z,3.66
2018-02-02T17:54:37.136Z,3.54
2018-02-02T17:57:02.928Z,3.52
2018-02-02T17:59:28.748Z,3.59
2018-02-02T18:01:55.342Z,3.50
2018-02-02T18:04:21.145Z,3.47
2018-02-02T18:06:46.927Z,3.49
2018-02-02T18:09:12.712Z,3.44
2018-02-02T18:11:38.508Z,3.43
2018-02-02T18:14:04.315Z,3.40
2018-02-02T18:16:30.246Z,3.35
2018-02-02T18:18:56.060Z,3.40
2018-02-02T18:21:21.843Z,3.37
2018-02-02T18:23:47.629Z,3.36
2018-02-02T18:26:13.449Z,3.49
2018-02-02T18:28:39.490Z,3.72
2018-02-02T18:31:05.292Z,3.85
2018-02-02T18:33:31.078Z,3.94
2018-02-02T18:35:56.869Z,3.96
2018-02-02T18:38:22.657Z,3.83
2018-02-02T18:40:48.693Z,3.88
2018-02-02T18:43:14.487Z,3.87
2018-02-02T18:45:40.288Z,3.76
2018-02-02T18:48:06.075Z,3.75
2018-02-02T18:50:31.876Z,3.58
2018-02-02T18:52:57.683Z,3.59
2018-02-02T18:55:23.495Z,3.59
2018-02-02T18:57:49.276Z,3.82
2018-02-02T19:00:15.068Z,3.98
2018-02-02T19:02:40.863Z,4.01
2018-02-02T19:05:06.685Z,4.04
2018-02-02T19:07:32.483Z,4.00
2018-02-02T19:09:58.259Z,3.99
2018-02-02T19:12:24.079Z,3.90
2018-02-02T19:14:49.879Z,3.96
2018-02-02T19:17:15.693Z,3.78
2018-02-02T19:19:41.507Z,3.81
2018-02-02T19:22:07.294Z,3.65
2018-02-02T19:24:33.091Z,3.59
2018-02-02T19:26:58.879Z,3.65
2018-02-02T19:29:24.748Z,3.63
2018-02-02T19:31:50.546Z,3.75
2018-02-02T19:34:16.350Z,3.66
2018-02-02T19:36:42.202Z,3.76
2018-02-02T19:39:07.999Z,3.70
2018-02-02T19:41:33.818Z,3.61
2018-02-02T19:43:59.605Z,3.60
2018-02-02T19:46:25.414Z,3.65
2018-02-02T19:48:51.208Z,3.66
2018-02-02T19:51:17.046Z,3.73
2018-02-02T19:53:42.843Z,3.86
2018-02-02T19:56:08.674Z,3.69
2018-02-02T19:58:34.603Z,3.74
2018-02-02T20:01:00.432Z,3.68
2018-02-02T20:03:26.218Z,3.62
2018-02-02T20:05:52.006Z,3.65
2018-02-02T20:08:17.822Z,3.75
2018-02-02T20:10:43.650Z,3.65
2018-02-02T20:13:09.469Z,3.69
2018-02-02T20:15:35.271Z,3.79
2018-02-02T20:18:01.059Z,3.65
2018-02-02T20:20:26.870Z,3.58
2018-02-02T20:22:52.969Z,3.55
2018-02-02T20:25:18.801Z,3.56
2018-02-02T20:27:44.605Z,3.58
2018-02-02T20:30:10.430Z,3.61
2018-02-02T20:32:36.205Z,3.63
2018-02-02T20:35:02.047Z,3.60
2018-02-02T20:37:27.839Z,3.64
2018-02-02T20:39:53.629Z,3.68
2018-02-02T20:42:19.419Z,3.59
2018-02-02T20:44:45.212Z,3.57
2018-02-02T20:47:11.007Z,3.62
2018-02-02T20:49:36.867Z,3.57
2018-02-02T20:52:02.651Z,3.58
2018-02-02T20:54:28.442Z,3.58
2018-02-02T20:56:54.258Z,3.59
2018-02-02T20:59:20.092Z,3.62
2018-02-02T21:01:45.896Z,3.64
2018-02-02T21:04:11.691Z,3.64
2018-02-02T21:06:37.498Z,3.59
2018-02-02T21:09:03.319Z,3.64
2018-02-02T21:11:29.402Z,3.56
2018-02-02T21:13:55.195Z,3.59
2018-02-02T21:16:20.980Z,3.50
2018-02-02T21:18:46.756Z,3.55
2018-02-02T21:21:12.544Z,3.63
2018-02-02T21:23:38.373Z,3.63
2018-02-02T21:26:04.168Z,3.54
2018-02-02T21:28:29.961Z,3.59
2018-02-02T21:30:55.746Z,3.48
2018-02-02T21:33:21.539Z,3.32
2018-02-02T21:35:47.596Z,3.31
2018-02-02T21:38:13.395Z,3.35
2018-02-02T21:40:39.199Z,3.38
2018-02-02T21:43:04.991Z,3.32
2018-02-02T21:45:30.792Z,3.20
2018-02-02T21:47:56.592Z,3.06
2018-02-02T21:50:22.419Z,3.03
2018-02-02T21:52:48.507Z,2.88
2018-02-02T21:55:14.300Z,2.95
2018-02-02T21:57:40.089Z,2.98
2018-02-02T22:00:06.858Z,3.02
2018-02-02T22:02:33.850Z,2.95
2018-02-02T22:05:00.729Z,3.03
2018-02-02T22:07:27.632Z,2.96
2018-02-02T22:09:55.250Z,3.00
2018-02-02T22:12:22.087Z,2.94
2018-02-02T22:14:47.967Z,2.95
2018-02-02T22:17:13.756Z,2.81
2018-02-02T22:19:39.552Z,2.73
2018-02-02T22:22:05.362Z,2.67
2018-02-02T22:24:31.156Z,2.73
2018-02-02T22:26:56.944Z,2.80
2018-02-02T22:29:22.767Z,2.71
2018-02-02T22:31:48.692Z,2.74
2018-02-02T22:34:14.509Z,2.59
2018-02-02T22:36:40.498Z,2.45
2018-02-02T22:39:06.316Z,2.47
2018-02-02T22:41:32.114Z,2.51
2018-02-02T22:43:58.234Z,2.41
2018-02-02T22:46:24.027Z,2.32
2018-02-02T22:48:49.860Z,2.30
2018-02-02T22:51:15.635Z,2.32
2018-02-02T22:53:41.752Z,2.25
2018-02-02T22:56:08.207Z,2.29
2018-02-02T22:58:34.234Z,2.34
2018-02-02T23:01:00.041Z,2.37
2018-02-02T23:03:25.896Z,2.38
2018-02-02T23:05:51.710Z,2.34
2018-02-02T23:08:17.766Z,2.29
2018-02-02T23:10:43.879Z,2.34
2018-02-02T23:13:10.005Z,2.20
2018-02-02T23:15:35.798Z,2.22
2018-02-02T23:18:01.678Z,2.06
2018-02-02T23:20:27.482Z,2.15
2018-02-02T23:22:53.661Z,2.13
2018-02-02T23:25:19.480Z,2.07
2018-02-02T23:27:45.278Z,2.02
2018-02-02T23:30:11.112Z,1.97
2018-02-02T23:32:37.169Z,1.93
2018-02-02T23:35:02.997Z,1.94
2018-02-02T23:37:28.810Z,2.07
2018-02-02T23:39:54.603Z,2.09
2018-02-02T23:42:20.408Z,2.03
2018-02-02T23:44:46.514Z,2.19
2018-02-02T23:47:12.831Z,2.01
2018-02-02T23:49:38.687Z,1.99
2018-02-02T23:52:04.962Z,1.98
2018-02-02T23:54:30.843Z,1.93
2018-02-02T23:56:56.690Z,1.97
2018-02-02T23:59:22.483Z,1.99
